Time,TemperatureF,DewpointF,PressureIn,WindDirection,WindDirectionDegrees,WindSpeedMPH,WindSpeedGustMPH,Humidity,HourlyPrecipIn,Conditions,Clouds,dailyrainin,SoftwareType,DateUTC
2013-03-31 00:01:00,65.0,39.0,29.98,SSW,198,23.0,33.0,38,0.00,,,0.00,,2013-03-31 07:01:00,
2013-03-31 00:11:00,65.0,39.0,29.98,SSW,198,23.0,33.0,38,0.00,,,0.00,,2013-03-31 07:11:00,
2013-03-31 00:22:00,65.0,39.0,29.98,South,191,27.0,34.0,38,0.00,,,0.00,,2013-03-31 07:22:00,
2013-03-31 00:32:00,66.0,39.0,29.98,SSW,198,21.0,33.0,37,0.00,,,0.00,,2013-03-31 07:32:00,
2013-03-31 00:42:00,66.0,39.0,29.98,SSW,198,21.0,33.0,37,0.00,,,0.00,,2013-03-31 07:42:00,
2013-03-31 00:52:00,65.0,39.0,29.98,South,182,21.0,31.0,38,0.00,,,0.00,,2013-03-31 07:52:00,
2013-03-31 01:01:00,65.0,39.0,29.98,SSW,197,26.0,34.0,38,0.00,,,0.00,,2013-03-31 08:01:00,
2013-03-31 01:12:00,65.0,39.0,29.98,SSW,197,26.0,34.0,38,0.00,,,0.00,,2013-03-31 08:12:00,
2013-03-31 01:22:00,64.0,39.0,29.98,SSW,194,21.0,34.0,39,0.00,,,0.00,,2013-03-31 08:22:00,
2013-03-31 01:31:00,64.0,39.0,29.98,SSW,196,29.0,36.0,40,0.00,,,0.00,,2013-03-31 08:31:00,
2013-03-31 01:42:00,64.0,39.0,29.98,SSW,196,29.0,36.0,40,0.00,,,0.00,,2013-03-31 08:42:00,
2013-03-31 01:52:00,64.0,39.0,30.00,South,186,23.0,31.0,40,0.00,,,0.00,,2013-03-31 08:52:00,
2013-03-31 02:01:00,63.0,38.0,30.01,South,189,21.0,30.0,40,0.00,,,0.00,,2013-03-31 09:01:00,
2013-03-31 02:11:00,63.0,38.0,30.01,South,189,21.0,30.0,40,0.00,,,0.00,,2013-03-31 09:11:00,
2013-03-31 02:21:00,63.0,40.0,30.01,South,191,19.0,26.0,42,0.00,,,0.00,,2013-03-31 09:21:00,
2013-03-31 02:32:00,62.0,39.0,30.01,SSW,195,14.0,24.0,42,0.00,,,0.00,,2013-03-31 09:32:00,
2013-03-31 02:42:00,62.0,39.0,30.01,SSW,195,14.0,24.0,42,0.00,,,0.00,,2013-03-31 09:42:00,
2013-03-31 02:53:00,62.0,39.0,30.01,South,186,17.0,24.0,43,0.00,,,0.00,,2013-03-31 09:53:00,
2013-03-31 03:02:00,62.0,39.0,30.01,SSW,195,17.0,24.0,43,0.00,,,0.00,,2013-03-31 10:02:00,
2013-03-31 03:12:00,62.0,39.0,30.01,SSW,195,17.0,24.0,43,0.00,,,0.00,,2013-03-31 10:12:00,
2013-03-31 03:22:00,62.0,39.0,30.00,SSW,198,16.0,23.0,43,0.00,,,0.00,,2013-03-31 10:22:00,
2013-03-31 03:32:00,61.0,39.0,30.00,South,187,16.0,22.0,44,0.00,,,0.00,,2013-03-31 10:32:00,
2013-03-31 03:42:00,61.0,39.0,30.00,South,187,16.0,22.0,44,0.00,,,0.00,,2013-03-31 10:42:00,
2013-03-31 03:53:00,60.0,38.0,30.00,South,185,18.0,25.0,44,0.00,,,0.00,,2013-03-31 10:53:00,
2013-03-31 04:02:00,60.0,38.0,30.00,South,188,15.0,22.0,44,0.00,,,0.00,,2013-03-31 11:02:00,
2013-03-31 04:12:00,60.0,38.0,30.00,South,188,15.0,22.0,44,0.00,,,0.00,,2013-03-31 11:12:00,
2013-03-31 04:22:00,60.0,39.0,30.00,South,169,15.0,22.0,45,0.00,,,0.00,,2013-03-31 11:22:00,
2013-03-31 04:32:00,60.0,39.0,30.00,South,172,14.0,19.0,45,0.00,,,0.00,,2013-03-31 11:32:00,
2013-03-31 04:42:00,60.0,39.0,30.00,South,172,14.0,19.0,45,0.00,,,0.00,,2013-03-31 11:42:00,
2013-03-31 04:52:00,59.0,38.0,30.00,South,176,12.0,18.0,46,0.00,,,0.00,,2013-03-31 11:52:00,
2013-03-31 05:02:00,59.0,38.0,30.00,South,178,14.0,17.0,46,0.00,,,0.00,,2013-03-31 12:02:00,
2013-03-31 05:11:00,59.0,38.0,30.00,South,178,14.0,17.0,46,0.00,,,0.00,,2013-03-31 12:11:00,
2013-03-31 05:22:00,59.0,38.0,30.00,South,180,14.0,18.0,46,0.00,,,0.00,,2013-03-31 12:22:00,
2013-03-31 05:32:00,59.0,38.0,30.00,South,174,14.0,18.0,46,0.00,,,0.00,,2013-03-31 12:32:00,
2013-03-31 05:42:00,59.0,38.0,30.00,South,174,14.0,18.0,46,0.00,,,0.00,,2013-03-31 12:42:00,
2013-03-31 05:52:00,58.0,38.0,30.00,South,173,14.0,19.0,47,0.00,,,0.00,,2013-03-31 12:52:00,
2013-03-31 06:02:00,58.0,38.0,30.01,South,174,17.0,22.0,47,0.00,,,0.00,,2013-03-31 13:02:00,
2013-03-31 06:12:00,58.0,38.0,30.01,South,174,17.0,22.0,47,0.00,,,0.00,,2013-03-31 13:12:00,
2013-03-31 06:22:00,57.0,37.0,30.00,South,171,18.0,22.0,47,0.00,,,0.00,,2013-03-31 13:22:00,
2013-03-31 06:32:00,57.0,38.0,30.01,SSE,163,14.0,20.0,48,0.00,,,0.00,,2013-03-31 13:32:00,
2013-03-31 06:41:00,57.0,38.0,30.01,SSE,163,14.0,20.0,48,0.00,,,0.00,,2013-03-31 13:41:00,
2013-03-31 06:53:00,56.0,38.0,30.01,South,172,18.0,23.0,50,0.00,,,0.00,,2013-03-31 13:53:00,
2013-03-31 07:01:00,56.0,38.0,30.02,South,178,14.0,20.0,51,0.00,,,0.00,,2013-03-31 14:01:00,
2013-03-31 07:11:00,56.0,38.0,30.02,South,178,14.0,20.0,51,0.00,,,0.00,,2013-03-31 14:11:00,
2013-03-31 07:22:00,56.0,39.0,30.01,South,171,17.0,23.0,52,0.00,,,0.00,,2013-03-31 14:22:00,
2013-03-31 07:32:00,57.0,39.0,30.01,SSW,192,22.0,27.0,51,0.00,,,0.00,,2013-03-31 14:32:00,
2013-03-31 07:42:00,57.0,39.0,30.01,SSW,192,22.0,27.0,51,0.00,,,0.00,,2013-03-31 14:42:00,
2013-03-31 07:52:00,57.0,39.0,30.01,South,187,21.0,28.0,50,0.00,,,0.00,,2013-03-31 14:52:00,
2013-03-31 08:01:00,58.0,40.0,30.01,SSW,194,21.0,28.0,51,0.00,,,0.00,,2013-03-31 15:01:00,
2013-03-31 08:12:00,58.0,40.0,30.01,SSW,194,21.0,28.0,51,0.00,,,0.00,,2013-03-31 15:12:00,
2013-03-31 08:22:00,59.0,40.0,30.02,SSW,195,20.0,25.0,50,0.00,,,0.00,,2013-03-31 15:22:00,
2013-03-31 08:33:00,59.0,41.0,30.02,South,184,22.0,30.0,51,0.00,,,0.00,,2013-03-31 15:33:00,
2013-03-31 08:42:00,59.0,41.0,30.02,South,184,22.0,30.0,51,0.00,,,0.00,,2013-03-31 15:42:00,
2013-03-31 08:53:00,60.0,42.0,30.03,South,190,19.0,23.0,51,0.00,,,0.00,,2013-03-31 15:53:00,
2013-03-31 09:02:00,60.0,42.0,30.03,SSW,199,21.0,27.0,51,0.00,,,0.00,,2013-03-31 16:02:00,
2013-03-31 09:12:00,60.0,42.0,30.03,SSW,199,21.0,27.0,51,0.00,,,0.00,,2013-03-31 16:12:00,
2013-03-31 09:22:00,63.0,42.0,30.03,South,179,16.0,26.0,46,0.00,,,0.00,,2013-03-31 16:22:00,
2013-03-31 09:32:00,64.0,40.0,30.03,SW,232,15.0,20.0,41,0.00,,,0.00,,2013-03-31 16:32:00,
2013-03-31 09:42:00,64.0,40.0,30.03,SW,232,15.0,20.0,41,0.00,,,0.00,,2013-03-31 16:42:00,
2013-03-31 09:53:00,65.0,39.0,30.04,WSW,244,16.0,21.0,38,0.00,,,0.00,,2013-03-31 16:53:00,
2013-03-31 10:02:00,66.0,39.0,30.03,SSW,213,12.0,22.0,37,0.00,,,0.00,,2013-03-31 17:02:00,
2013-03-31 10:12:00,66.0,39.0,30.03,SSW,213,12.0,22.0,37,0.00,,,0.00,,2013-03-31 17:12:00,
2013-03-31 10:22:00,67.0,39.0,30.04,SSW,194,11.0,23.0,36,0.00,,,0.00,,2013-03-31 17:22:00,
2013-03-31 10:31:00,68.0,39.0,30.04,SW,218,13.0,20.0,35,0.00,,,0.00,,2013-03-31 17:31:00,
2013-03-31 10:42:00,68.0,39.0,30.04,SW,218,13.0,20.0,35,0.00,,,0.00,,2013-03-31 17:42:00,
2013-03-31 10:52:00,69.0,41.0,30.03,SSW,203,15.0,19.0,36,0.00,,,0.00,,2013-03-31 17:52:00,
2013-03-31 11:02:00,70.0,40.0,30.03,SW,230,10.0,16.0,33,0.00,,,0.00,,2013-03-31 18:02:00,
2013-03-31 11:12:00,70.0,40.0,30.03,SW,230,10.0,16.0,33,0.00,,,0.00,,2013-03-31 18:12:00,
2013-03-31 11:21:00,71.0,38.0,30.03,WSW,249,10.0,19.0,30,0.00,,,0.00,,2013-03-31 18:21:00,
2013-03-31 11:32:00,72.0,39.0,30.03,SW,229,15.0,23.0,30,0.00,,,0.00,,2013-03-31 18:32:00,
2013-03-31 11:41:00,72.0,39.0,30.03,SW,229,15.0,23.0,30,0.00,,,0.00,,2013-03-31 18:41:00,
2013-03-31 11:53:00,73.0,34.0,30.02,SSW,213,8.0,22.0,24,0.00,,,0.00,,2013-03-31 18:53:00,
2013-03-31 12:02:00,74.0,34.0,30.02,WSW,237,11.0,19.0,23,0.00,,,0.00,,2013-03-31 19:02:00,
2013-03-31 12:11:00,74.0,34.0,30.02,WSW,237,11.0,19.0,23,0.00,,,0.00,,2013-03-31 19:11:00,
2013-03-31 12:21:00,74.0,35.0,30.02,SW,232,16.0,28.0,24,0.00,,,0.00,,2013-03-31 19:21:00,
2013-03-31 12:32:00,74.0,34.0,29.98,SW,232,17.0,22.0,23,0.00,,,0.00,,2013-03-31 19:32:00,
2013-03-31 12:42:00,74.0,34.0,29.98,SW,232,17.0,22.0,23,0.00,,,0.00,,2013-03-31 19:42:00,
2013-03-31 12:54:00,74.0,35.0,29.98,SW,221,17.0,25.0,24,0.00,,,0.00,,2013-03-31 19:54:00,
2013-03-31 13:02:00,74.0,35.0,29.99,SSW,205,11.0,20.0,24,0.00,,,0.00,,2013-03-31 20:02:00,
2013-03-31 13:11:00,74.0,35.0,29.99,SSW,205,11.0,20.0,24,0.00,,,0.00,,2013-03-31 20:11:00,
2013-03-31 13:22:00,74.0,36.0,29.98,SW,214,14.0,23.0,25,0.00,,,0.00,,2013-03-31 20:22:00,
2013-03-31 13:32:00,74.0,36.0,29.98,SSW,211,13.0,22.0,25,0.00,,,0.00,,2013-03-31 20:32:00,
2013-03-31 13:42:00,74.0,36.0,29.98,SSW,211,13.0,22.0,25,0.00,,,0.00,,2013-03-31 20:42:00,
2013-03-31 13:52:00,76.0,38.0,29.97,South,191,16.0,27.0,25,0.00,,,0.00,,2013-03-31 20:52:00,
2013-03-31 14:02:00,77.0,37.0,29.96,SSE,161,17.0,26.0,24,0.00,,,0.00,,2013-03-31 21:02:00,
2013-03-31 14:11:00,77.0,37.0,29.96,SSE,161,17.0,26.0,24,0.00,,,0.00,,2013-03-31 21:11:00,
2013-03-31 14:22:00,76.0,38.0,29.96,SW,223,7.0,21.0,25,0.00,,,0.00,,2013-03-31 21:22:00,
2013-03-31 14:33:00,76.0,39.0,29.95,SSW,213,13.0,21.0,26,0.00,,,0.00,,2013-03-31 21:33:00,
2013-03-31 14:43:00,76.0,39.0,29.95,SSW,213,13.0,21.0,26,0.00,,,0.00,,2013-03-31 21:43:00,
2013-03-31 14:53:00,77.0,39.0,29.94,SSW,213,13.0,19.0,26,0.00,,,0.00,,2013-03-31 21:53:00,
2013-03-31 15:02:00,76.0,39.0,29.94,SW,230,14.0,20.0,26,0.00,,,0.00,,2013-03-31 22:02:00,
2013-03-31 15:12:00,76.0,39.0,29.94,SW,230,14.0,20.0,26,0.00,,,0.00,,2013-03-31 22:12:00,
2013-03-31 15:23:00,75.0,40.0,29.93,SW,232,15.0,19.0,28,0.00,,,0.00,,2013-03-31 22:23:00,
2013-03-31 15:32:00,73.0,39.0,29.93,SW,232,17.0,25.0,29,0.00,,,0.00,,2013-03-31 22:32:00,
2013-03-31 15:42:00,73.0,39.0,29.93,SW,232,17.0,25.0,29,0.00,,,0.00,,2013-03-31 22:42:00,
2013-03-31 15:53:00,70.0,39.0,29.93,SSE,163,21.0,32.0,32,0.00,,,0.00,,2013-03-31 22:53:00,
2013-03-31 16:02:00,70.0,40.0,29.93,SSW,213,20.0,31.0,33,0.00,,,0.00,,2013-03-31 23:02:00,
2013-03-31 16:12:00,70.0,40.0,29.93,SSW,213,20.0,31.0,33,0.00,,,0.00,,2013-03-31 23:12:00,
2013-03-31 16:22:00,69.0,41.0,29.93,South,183,24.0,30.0,36,0.00,,,0.00,,2013-03-31 23:22:00,
2013-03-31 16:31:00,69.0,41.0,29.93,South,184,25.0,32.0,36,0.00,,,0.00,,2013-03-31 23:31:00,
2013-03-31 16:42:00,69.0,41.0,29.93,South,184,25.0,32.0,36,0.00,,,0.00,,2013-03-31 23:42:00,
2013-03-31 16:53:00,67.0,42.0,29.92,SSW,194,28.0,35.0,40,0.00,,,0.00,,2013-03-31 23:53:00,
2013-03-31 17:01:00,67.0,43.0,29.92,SSW,198,21.0,33.0,42,0.00,,,0.00,,2013-04-01 00:01:00,
2013-03-31 17:12:00,67.0,43.0,29.92,SSW,198,21.0,33.0,42,0.00,,,0.00,,2013-04-01 00:12:00,
2013-03-31 17:22:00,67.0,43.0,29.92,SSW,195,21.0,33.0,42,0.00,,,0.00,,2013-04-01 00:22:00,
2013-03-31 17:31:00,66.0,45.0,29.92,South,190,30.0,36.0,46,0.00,,,0.00,,2013-04-01 00:31:00,
2013-03-31 17:42:00,66.0,45.0,29.92,South,190,30.0,36.0,46,0.00,,,0.00,,2013-04-01 00:42:00,
2013-03-31 17:52:00,65.0,45.0,29.92,SSW,195,28.0,35.0,48,0.00,,,0.00,,2013-04-01 00:52:00,
2013-03-31 18:01:00,65.0,45.0,29.92,South,190,29.0,37.0,49,0.00,,,0.00,,2013-04-01 01:01:00,
2013-03-31 18:11:00,65.0,45.0,29.92,South,190,29.0,37.0,49,0.00,,,0.00,,2013-04-01 01:11:00,
2013-03-31 18:22:00,63.0,45.0,29.92,South,182,28.0,38.0,52,0.00,,,0.00,,2013-04-01 01:22:00,
2013-03-31 18:31:00,62.0,45.0,29.93,South,178,25.0,40.0,53,0.00,,,0.00,,2013-04-01 01:31:00,
2013-03-31 18:42:00,62.0,45.0,29.93,South,178,25.0,40.0,53,0.00,,,0.00,,2013-04-01 01:42:00,
2013-03-31 18:52:00,61.0,45.0,29.93,South,191,26.0,38.0,56,0.00,,,0.00,,2013-04-01 01:52:00,
2013-03-31 19:02:00,61.0,45.0,29.93,SW,214,25.0,35.0,56,0.00,,,0.00,,2013-04-01 02:02:00,
2013-03-31 19:11:00,61.0,45.0,29.93,SW,214,25.0,35.0,56,0.00,,,0.00,,2013-04-01 02:11:00,
2013-03-31 19:21:00,60.0,46.0,29.93,South,184,21.0,32.0,59,0.00,,,0.00,,2013-04-01 02:21:00,
2013-03-31 19:32:00,59.0,45.0,29.93,South,182,23.0,34.0,60,0.00,,,0.00,,2013-04-01 02:32:00,
2013-03-31 19:42:00,59.0,45.0,29.93,South,182,23.0,34.0,60,0.00,,,0.00,,2013-04-01 02:42:00,
2013-03-31 19:53:00,59.0,44.0,29.94,South,187,20.0,31.0,58,0.00,,,0.00,,2013-04-01 02:53:00,
2013-03-31 20:02:00,59.0,45.0,29.94,South,190,22.0,30.0,59,0.00,,,0.00,,2013-04-01 03:02:00,
2013-03-31 20:11:00,59.0,45.0,29.94,South,190,22.0,30.0,59,0.00,,,0.00,,2013-04-01 03:11:00,
2013-03-31 20:22:00,59.0,45.0,29.95,South,188,21.0,29.0,60,0.00,,,0.00,,2013-04-01 03:22:00,
2013-03-31 20:33:00,59.0,46.0,29.96,SSW,211,18.0,26.0,61,0.00,,,0.00,,2013-04-01 03:33:00,
2013-03-31 20:43:00,59.0,46.0,29.96,SSW,211,18.0,26.0,61,0.00,,,0.00,,2013-04-01 03:43:00,
2013-03-31 20:53:00,58.0,46.0,29.96,SW,214,16.0,30.0,64,0.00,,,0.00,,2013-04-01 03:53:00,
2013-03-31 21:02:00,58.0,45.0,29.96,SW,217,19.0,27.0,63,0.00,,,0.00,,2013-04-01 04:02:00,
2013-03-31 21:12:00,58.0,45.0,29.96,SW,217,19.0,27.0,63,0.00,,,0.00,,2013-04-01 04:12:00,
2013-03-31 21:23:00,58.0,43.0,29.97,SW,220,17.0,26.0,58,0.00,,,0.00,,2013-04-01 04:23:00,
2013-03-31 21:32:00,58.0,41.0,29.97,SW,223,14.0,24.0,54,0.00,,,0.00,,2013-04-01 04:32:00,
2013-03-31 21:42:00,58.0,41.0,29.97,SW,223,14.0,24.0,54,0.00,,,0.00,,2013-04-01 04:42:00,
2013-03-31 21:53:00,58.0,42.0,29.98,SSW,193,13.0,20.0,55,0.00,,,0.00,,2013-04-01 04:53:00,
2013-03-31 22:02:00,58.0,41.0,29.98,SSW,200,17.0,26.0,54,0.00,,,0.00,,2013-04-01 05:02:00,
2013-03-31 22:12:00,58.0,41.0,29.98,SSW,200,17.0,26.0,54,0.00,,,0.00,,2013-04-01 05:12:00,
2013-03-31 22:22:00,58.0,40.0,29.98,SW,227,20.0,26.0,52,0.00,,,0.00,,2013-04-01 05:22:00,
2013-03-31 22:32:00,58.0,40.0,29.99,SW,231,15.0,26.0,52,0.00,,,0.00,,2013-04-01 05:32:00,
2013-03-31 22:42:00,58.0,40.0,29.99,SW,231,15.0,26.0,52,0.00,,,0.00,,2013-04-01 05:42:00,
2013-03-31 22:52:00,57.0,41.0,29.99,SW,218,13.0,21.0,54,0.00,,,0.00,,2013-04-01 05:52:00,
2013-03-31 23:01:00,57.0,40.0,29.99,SW,221,17.0,26.0,52,0.00,,,0.00,,2013-04-01 06:01:00,
2013-03-31 23:12:00,57.0,40.0,29.99,SW,221,17.0,26.0,52,0.00,,,0.00,,2013-04-01 06:12:00,
2013-03-31 23:22:00,57.0,39.0,29.98,SW,233,23.0,30.0,50,0.00,,,0.00,,2013-04-01 06:22:00,
2013-03-31 23:32:00,57.0,39.0,29.98,SW,236,19.0,27.0,50,0.00,,,0.00,,2013-04-01 06:32:00,
2013-03-31 23:42:00,57.0,39.0,29.98,SW,236,19.0,27.0,50,0.00,,,0.00,,2013-04-01 06:42:00,
2013-03-31 23:52:00,57.0,39.0,29.96,SW,236,17.0,28.0,50,0.00,,,0.00,,2013-04-01 06:52:00,